Decoded Metar for LFCR (RODEZ in FRANCE) (IATA:RDZ) | Meteo·Mobile Aviation Weather
aviador You're here:

LFCR Decoded Metar

RODEZ in FRANCE
Report Time2019-04-20 10:30:00
UTC Time2019-04-20 10:51:38
Flight Rules vfr VFR
Wind100° at 08 kt
W.Decomp.*RWY 13: 6.9 kt HW 4 kt LCW
Visibility9999 m
Phenomena:N/A
Clouds:N/A
Expected CloudBase > 6,400 ft AGL from Temp-Dew spread
CeilingNone
Temp18°C (ISA +7)
Dew Point02°C (34% RH)
AAT13.4°C
QNH1024 hPa
Density Alt2,428 ft
Elevation1,903 ft
Report Wrong Elevation
Raw Report
LFCR 201030Z AUTO 10008KT CAVOK 18/02 Q1024 NOSIG=

Extra information for LFCR:More info

Metar Taf Metar & Taf Last 4 Metars F.Rules Stats Wind Profile Meteogram Temp Stats Airport Information Weather charts Add Link Nearby VenuesMetar ALERT Operation Metar Decoded Social comments